Time;durP1;ratioP1;P1;durP2;ratioP2;P2;SDS_P1;SDS_P2;PMS_P1;PMS_P2;Temp;Humidity;BMP_temperature;BMP_pressure;BME280_temperature;BME280_humidity;BME280_pressure;Samples;Min_cycle;Max_cycle;Signal;HPM_P1;HPM_P2
2022/04/13 00:01:50;;;;;;;386.13;354.13;;;;;;;18.27;33.14;93427.59;5035349;28;20045;-68
2022/04/13 00:04:17;;;;;;;366.98;337.10;;;;;;;18.26;33.24;93429.53;5035132;28;20109;-69
2022/04/13 00:06:43;;;;;;;371.50;341.60;;;;;;;18.26;33.13;93428.81;5035925;28;20119;-68
2022/04/13 00:09:10;;;;;;;383.40;351.13;;;;;;;18.27;33.42;93417.50;5038513;28;22268;-68
2022/04/13 00:11:36;;;;;;;374.42;345.08;;;;;;;18.29;33.13;93425.16;5024375;28;20643;-67
2022/04/13 00:14:02;;;;;;;376.95;347.75;;;;;;;18.28;33.10;93413.59;5049287;28;20049;-68
2022/04/13 00:16:31;;;;;;;364.65;335.75;;;;;;;18.28;33.04;93416.28;5050183;28;20053;-68
2022/04/13 00:18:57;;;;;;;373.73;343.80;;;;;;;18.28;33.13;93415.53;5054022;28;20055;-68
2022/04/13 00:21:22;;;;;;;371.27;341.52;;;;;;;18.29;32.84;93411.63;5043088;28;20069;-68
2022/04/13 00:23:48;;;;;;;369.13;340.42;;;;;;;18.27;33.09;93412.09;5033388;28;20086;-67
2022/04/13 00:26:13;;;;;;;386.75;355.63;;;;;;;18.28;33.26;93408.16;5032329;28;20041;-68
2022/04/13 00:28:39;;;;;;;363.95;334.83;;;;;;;18.28;33.03;93407.44;5044378;28;20052;-68
2022/04/13 00:31:05;;;;;;;361.23;332.25;;;;;;;18.27;32.98;93405.94;5048447;28;20044;-67
2022/04/13 00:33:32;;;;;;;385.67;354.60;;;;;;;18.26;33.23;93402.47;5030997;28;20103;-68
2022/04/13 00:35:58;;;;;;;371.92;341.73;;;;;;;18.25;33.11;93406.41;5049694;28;20042;-67
2022/04/13 00:38:23;;;;;;;379.70;349.42;;;;;;;18.25;33.15;93406.41;5032764;28;20551;-67
2022/04/13 00:40:49;;;;;;;376.98;346.98;;;;;;;18.23;33.22;93400.72;5028260;28;20079;-67
2022/04/13 00:43:15;;;;;;;369.20;339.42;;;;;;;18.24;33.06;93401.47;5045906;28;20520;-68
2022/04/13 00:45:45;;;;;;;377.33;347.33;;;;;;;18.24;33.12;93404.16;5038200;28;20033;-67
2022/04/13 00:48:18;;;;;;;374.65;344.50;;;;;;;18.25;32.96;93411.81;5034927;28;20037;-68
2022/04/13 00:50:44;;;;;;;376.52;346.52;;;;;;;18.24;32.85;93404.16;5026384;28;20049;-67
2022/04/13 00:53:12;;;;;;;373.67;343.58;;;;;;;18.24;33.34;93410.31;5034845;28;20206;-69
2022/04/13 00:55:40;;;;;;;381.05;351.52;;;;;;;18.23;33.12;93405.38;5035326;28;20040;-68
2022/04/13 00:58:10;;;;;;;366.00;337.05;;;;;;;18.22;33.00;93407.34;5043494;28;20047;-68
2022/04/13 01:00:48;;;;;;;376.15;346.20;;;;;;;18.22;33.17;93409.31;5023950;28;20048;-68
2022/04/13 01:03:19;;;;;;;377.70;347.13;;;;;;;18.21;33.06;93405.09;5041357;28;20116;-68
2022/04/13 01:05:47;;;;;;;387.77;357.35;;;;;;;18.20;33.04;93404.34;5048334;28;20086;-68
2022/04/13 01:08:14;;;;;;;374.98;344.50;;;;;;;18.19;33.07;93404.84;5026505;28;20140;-68
2022/04/13 01:10:46;;;;;;;373.38;344.23;;;;;;;18.18;32.99;93412.22;5040271;28;20053;-68
2022/04/13 01:13:13;;;;;;;383.63;352.60;;;;;;;18.19;32.97;93416.44;5036127;28;20130;-68
2022/04/13 01:15:39;;;;;;;375.52;345.73;;;;;;;18.19;33.26;93410.25;5043257;28;20047;-68
2022/04/13 01:18:05;;;;;;;373.52;343.08;;;;;;;18.19;33.11;93418.38;5032760;28;20045;-68
2022/04/13 01:20:31;;;;;;;374.60;344.27;;;;;;;18.18;33.07;93420.34;5041658;28;20068;-68
2022/04/13 01:22:57;;;;;;;373.25;344.13;;;;;;;18.16;33.19;93422.78;5032338;28;20191;-68
2022/04/13 01:25:23;;;;;;;370.95;340.92;;;;;;;18.16;33.15;93420.06;5037941;28;20060;-69
2022/04/13 01:27:48;;;;;;;376.55;346.42;;;;;;;18.16;33.02;93422.78;5040868;28;20040;-68
2022/04/13 01:30:14;;;;;;;373.83;344.08;;;;;;;18.15;33.27;93429.41;5035122;28;20683;-68
2022/04/13 01:32:40;;;;;;;380.58;350.98;;;;;;;18.15;33.17;93429.41;5034081;28;20034;-68
2022/04/13 01:35:06;;;;;;;390.42;359.27;;;;;;;18.15;33.00;93429.41;5033273;28;20048;-68
2022/04/13 01:37:32;;;;;;;393.15;361.05;;;;;;;18.16;33.15;93430.91;5033086;28;20055;-68
2022/04/13 01:39:58;;;;;;;390.58;359.63;;;;;;;18.15;33.20;93437.53;5045037;28;20040;-68
2022/04/13 01:42:26;;;;;;;389.83;359.35;;;;;;;18.14;33.14;93436.03;5037620;28;20060;-68
2022/04/13 01:44:52;;;;;;;382.83;352.20;;;;;;;18.15;33.12;93434.06;5035658;28;20068;-68
2022/04/13 01:47:18;;;;;;;391.17;359.88;;;;;;;18.16;33.27;93438.25;5029858;28;20518;-68
2022/04/13 01:49:43;;;;;;;384.27;353.88;;;;;;;18.16;33.14;93440.97;5037940;28;20045;-68
2022/04/13 01:52:10;;;;;;;379.13;348.77;;;;;;;18.16;33.24;93451.78;5030476;28;20646;-68
2022/04/13 01:54:36;;;;;;;397.88;366.52;;;;;;;18.15;33.02;93440.22;5037800;28;20108;-68
2022/04/13 01:57:02;;;;;;;384.15;353.63;;;;;;;18.14;33.33;93449.56;5040284;28;20106;-68
2022/04/13 01:59:28;;;;;;;399.20;367.05;;;;;;;18.12;33.36;93446.56;5039973;28;20076;-68
2022/04/13 02:01:53;;;;;;;383.02;352.73;;;;;;;18.13;33.27;93450.78;5034118;28;20048;-68
2022/04/13 02:04:20;;;;;;;393.65;362.70;;;;;;;18.10;33.20;93444.34;5033100;28;20041;-68
2022/04/13 02:06:47;;;;;;;393.35;362.38;;;;;;;18.12;33.14;93449.28;5050368;28;20040;-68
2022/04/13 02:09:12;;;;;;;380.40;349.77;;;;;;;18.12;33.00;93457.41;5035230;28;20045;-68
2022/04/13 02:11:38;;;;;;;379.17;348.08;;;;;;;18.12;33.01;93457.41;5040986;28;20049;-68
2022/04/13 02:14:04;;;;;;;382.98;352.63;;;;;;;18.13;33.21;93458.16;5043893;28;20053;-68
2022/04/13 02:16:29;;;;;;;387.65;356.95;;;;;;;18.13;33.02;93463.56;5043324;28;20045;-68
2022/04/13 02:18:55;;;;;;;376.52;346.70;;;;;;;18.12;33.26;93467.47;5039315;28;20037;-68
2022/04/13 02:21:20;;;;;;;380.05;349.95;;;;;;;18.12;33.21;93467.47;5041852;28;20067;-68
2022/04/13 02:23:46;;;;;;;383.00;352.83;;;;;;;18.11;33.04;93469.44;5035711;28;20575;-68
2022/04/13 02:26:12;;;;;;;396.90;364.58;;;;;;;18.10;33.01;93467.94;5028622;28;20762;-69
2022/04/13 02:28:38;;;;;;;385.40;354.42;;;;;;;18.10;33.35;93471.41;5028156;28;20041;-68
2022/04/13 02:31:04;;;;;;;378.35;348.08;;;;;;;18.09;33.16;93463.75;5036548;28;20055;-68
2022/04/13 02:33:31;;;;;;;377.23;347.30;;;;;;;18.11;33.17;93466.72;5030440;28;20113;-68
2022/04/13 02:35:58;;;;;;;371.73;341.60;;;;;;;18.08;33.09;93465.69;5038313;28;20109;-68
2022/04/13 02:38:25;;;;;;;379.20;348.50;;;;;;;18.08;33.23;93465.69;5030729;28;20448;-68
2022/04/13 02:40:50;;;;;;;380.02;349.27;;;;;;;18.06;32.99;93465.41;5037627;28;20052;-68
2022/04/13 02:43:16;;;;;;;396.63;362.83;;;;;;;18.08;33.10;93470.38;5037949;28;20425;-68
2022/04/13 02:45:41;;;;;;;379.40;348.30;;;;;;;18.07;33.13;93464.22;5030939;28;20056;-68
2022/04/13 02:48:08;;;;;;;379.52;349.40;;;;;;;18.07;33.11;93461.50;5017214;28;20043;-69
2022/04/13 02:50:34;;;;;;;380.90;350.63;;;;;;;18.07;33.24;93464.22;5043551;28;20052;-68
2022/04/13 02:52:59;;;;;;;377.45;347.27;;;;;;;18.06;32.92;93465.41;5037615;28;20146;-68
2022/04/13 02:55:25;;;;;;;386.70;356.17;;;;;;;18.05;33.03;93463.94;5036625;28;20137;-68
2022/04/13 02:57:51;;;;;;;377.35;347.08;;;;;;;18.04;33.16;93465.13;5038038;28;20443;-68
2022/04/13 03:00:17;;;;;;;388.35;356.90;;;;;;;18.05;33.05;93469.34;5029679;28;20052;-68
2022/04/13 03:02:44;;;;;;;382.70;352.98;;;;;;;18.04;33.10;93467.84;5038881;28;20053;-68
2022/04/13 03:05:10;;;;;;;371.33;341.33;;;;;;;18.05;33.03;93463.19;5040782;28;20049;-68
2022/04/13 03:07:36;;;;;;;379.27;348.90;;;;;;;18.04;33.20;93459.72;5042314;28;20041;-68
2022/04/13 03:10:06;;;;;;;371.73;341.33;;;;;;;18.04;33.16;93467.84;5030975;28;20045;-68
2022/04/13 03:12:35;;;;;;;367.58;338.17;;;;;;;18.05;33.21;93466.63;5042000;28;20040;-68
2022/04/13 03:15:05;;;;;;;370.17;339.95;;;;;;;18.05;33.16;93469.34;5042045;28;20053;-68
2022/04/13 03:17:31;;;;;;;373.08;343.20;;;;;;;18.05;32.90;93465.88;5034618;28;20049;-68
2022/04/13 03:19:57;;;;;;;373.00;343.20;;;;;;;18.07;33.15;93468.88;5036863;28;20123;-68
2022/04/13 03:22:23;;;;;;;377.65;346.95;;;;;;;18.05;33.00;93472.03;5029448;28;20053;-68
2022/04/13 03:24:49;;;;;;;373.60;343.23;;;;;;;18.05;33.11;93465.88;5019774;28;20396;-68
2022/04/13 03:27:14;;;;;;;371.23;339.92;;;;;;;18.05;33.18;93466.63;5029596;28;20081;-68
2022/04/13 03:29:40;;;;;;;376.17;345.75;;;;;;;18.06;33.02;93470.09;5033642;28;20040;-68
2022/04/13 03:32:06;;;;;;;373.20;343.15;;;;;;;18.06;32.93;93475.50;5032203;28;20551;-69
2022/04/13 03:34:32;;;;;;;397.33;364.35;;;;;;;18.05;33.00;93472.03;5034335;28;20134;-69
2022/04/13 03:37:00;;;;;;;387.25;356.70;;;;;;;18.04;32.94;93467.09;5042005;28;20501;-69
2022/04/13 03:39:26;;;;;;;385.08;353.20;;;;;;;18.05;33.23;93466.63;5039055;28;20500;-69
2022/04/13 03:41:53;;;;;;;398.33;366.83;;;;;;;18.04;33.01;93470.56;5043729;28;20059;-70
2022/04/13 03:44:18;;;;;;;400.00;367.52;;;;;;;18.04;33.17;93469.81;5039630;28;20205;-70
2022/04/13 03:46:44;;;;;;;375.17;344.98;;;;;;;18.03;33.06;93471.75;5038889;28;20057;-70
2022/04/13 03:49:10;;;;;;;374.30;344.42;;;;;;;18.04;33.06;93480.63;5040721;28;20041;-70
2022/04/13 03:51:36;;;;;;;384.73;353.52;;;;;;;18.03;33.14;93476.44;5038041;28;20052;-70
2022/04/13 03:54:02;;;;;;;392.08;359.95;;;;;;;18.04;33.08;93478.66;5036864;28;20045;-70
2022/04/13 03:56:29;;;;;;;378.48;348.52;;;;;;;18.06;33.09;93472.78;5039465;28;20114;-70
2022/04/13 03:58:56;;;;;;;379.95;349.20;;;;;;;18.06;33.12;93478.94;5035965;28;20362;-70
2022/04/13 04:01:22;;;;;;;382.77;351.02;;;;;;;18.06;33.08;93470.84;5014944;28;20128;-70
2022/04/13 04:03:48;;;;;;;381.45;350.48;;;;;;;18.09;33.12;93477.28;5019832;28;20127;-70
2022/04/13 04:06:13;;;;;;;387.27;354.15;;;;;;;18.09;33.25;93477.28;5019033;28;20138;-69
2022/04/13 04:08:39;;;;;;;384.70;353.13;;;;;;;18.12;33.17;93470.19;5034452;28;20559;-71
2022/04/13 04:11:05;;;;;;;372.92;343.48;;;;;;;18.14;33.29;93481.28;5035709;28;20050;-69
2022/04/13 04:13:31;;;;;;;378.45;347.70;;;;;;;18.16;33.08;93478.84;5026510;28;20386;-71
2022/04/13 04:15:56;;;;;;;373.98;344.08;;;;;;;18.17;33.15;93485.75;5039739;28;20049;-69
2022/04/13 04:18:22;;;;;;;371.35;341.75;;;;;;;18.18;33.05;93484.56;5043466;28;21114;-69
2022/04/13 04:20:47;;;;;;;385.83;355.02;;;;;;;18.19;33.11;93483.34;5038804;28;20146;-70
2022/04/13 04:23:13;;;;;;;390.60;358.52;;;;;;;18.20;33.33;93487.53;5043106;28;20117;-69
2022/04/13 04:25:39;;;;;;;382.45;351.77;;;;;;;18.21;33.32;93478.91;5043009;28;20626;-69
2022/04/13 04:28:06;;;;;;;373.08;342.77;;;;;;;18.25;33.23;93481.44;5037490;28;20053;-70
2022/04/13 04:30:32;;;;;;;371.55;341.42;;;;;;;18.26;33.09;93483.69;5038844;28;20140;-69
2022/04/13 04:32:57;;;;;;;385.35;354.13;;;;;;;18.29;33.08;93485.44;5044197;28;20053;-70
2022/04/13 04:35:23;;;;;;;381.48;351.48;;;;;;;18.31;33.03;93485.00;5037863;28;20061;-70
2022/04/13 04:37:48;;;;;;;380.23;349.98;;;;;;;18.34;32.91;93482.09;5028151;28;20033;-70
2022/04/13 04:40:14;;;;;;;389.40;358.25;;;;;;;18.37;33.21;93485.81;5040872;28;20053;-70
2022/04/13 04:42:47;;;;;;;393.52;362.95;;;;;;;18.40;33.06;93480.22;5018899;28;20897;-69
2022/04/13 04:45:16;;;;;;;391.02;360.17;;;;;;;18.43;33.20;93473.13;5036140;28;20053;-69
2022/04/13 04:47:42;;;;;;;397.85;366.92;;;;;;;18.46;33.08;93482.28;5042055;28;20048;-70
2022/04/13 04:50:10;;;;;;;386.38;355.65;;;;;;;18.46;33.14;93479.56;5039026;28;20172;-69
2022/04/13 04:52:46;;;;;;;390.30;360.25;;;;;;;18.46;33.08;93485.72;5028929;28;20076;-70
2022/04/13 04:55:13;;;;;;;380.55;350.13;;;;;;;18.47;33.18;93489.19;5039378;28;20071;-70
2022/04/13 04:57:39;;;;;;;398.45;367.27;;;;;;;18.47;33.01;93483.75;5039506;28;20037;-69
2022/04/13 05:00:11;;;;;;;405.55;374.83;;;;;;;18.46;32.97;93493.09;5035910;28;20707;-69
2022/04/13 05:02:37;;;;;;;;;;;;;;;18.46;33.26;93487.69;5038805;28;20056;-69
2022/04/13 05:05:05;;;;;;;375.85;346.33;;;;;;;18.47;32.96;93491.88;5038305;28;19920;-69
2022/04/13 05:07:30;;;;;;;386.27;356.08;;;;;;;18.44;33.10;93491.59;5044282;28;20037;-69
2022/04/13 05:09:58;;;;;;;388.08;358.27;;;;;;;18.44;33.17;93488.16;5037747;28;20063;-69
2022/04/13 05:12:24;;;;;;;397.52;366.63;;;;;;;18.47;33.00;93491.88;5016403;28;20102;-69
2022/04/13 05:14:49;;;;;;;397.50;365.95;;;;;;;18.48;32.98;93490.66;5035904;28;20052;-70
2022/04/13 05:17:16;;;;;;;414.23;382.23;;;;;;;18.49;32.93;93495.63;5043816;28;20043;-70
2022/04/13 05:19:41;;;;;;;395.35;364.77;;;;;;;18.49;33.07;93497.56;5043503;28;20063;-70
2022/04/13 05:22:07;;;;;;;400.52;369.42;;;;;;;18.50;33.07;93504.47;5038545;28;20385;-70
2022/04/13 05:24:32;;;;;;;389.38;359.25;;;;;;;18.51;33.01;93505.97;5043167;28;20052;-70
2022/04/13 05:26:58;;;;;;;390.17;360.23;;;;;;;18.52;32.91;93499.34;5040670;28;20048;-69
2022/04/13 05:29:23;;;;;;;393.75;363.15;;;;;;;18.53;33.03;93496.16;5021963;28;20045;-69
2022/04/13 05:31:49;;;;;;;394.48;363.73;;;;;;;18.53;32.93;93495.44;5022171;28;20045;-70
2022/04/13 05:34:15;;;;;;;392.30;360.90;;;;;;;18.51;32.73;93495.91;5042834;28;20032;-70
2022/04/13 05:36:40;;;;;;;400.65;368.65;;;;;;;18.52;32.78;93502.81;5030708;28;20041;-69
2022/04/13 05:39:06;;;;;;;390.60;360.08;;;;;;;18.52;32.87;93500.09;5035803;28;20044;-69
2022/04/13 05:41:31;;;;;;;400.90;369.00;;;;;;;18.54;32.80;93503.09;5035426;28;20052;-70
2022/04/13 05:43:57;;;;;;;397.33;365.98;;;;;;;18.54;32.75;93508.50;5043935;28;20178;-69
2022/04/13 05:46:22;;;;;;;403.52;371.55;;;;;;;18.54;32.77;93519.31;5038534;28;20510;-70
2022/04/13 05:48:48;;;;;;;411.77;379.73;;;;;;;18.53;32.79;93509.72;5030062;28;20045;-69
2022/04/13 05:51:14;;;;;;;408.85;377.63;;;;;;;18.52;32.69;93515.59;5044859;28;20052;-69
2022/04/13 05:53:39;;;;;;;392.70;362.35;;;;;;;18.50;32.73;93516.06;5037545;28;20128;-70
2022/04/13 05:56:05;;;;;;;403.65;372.10;;;;;;;18.51;32.93;93517.56;5012288;28;20041;-69
2022/04/13 05:58:31;;;;;;;409.80;378.38;;;;;;;18.50;32.85;93513.34;5042916;28;20072;-69
2022/04/13 06:00:57;;;;;;;401.17;370.50;;;;;;;18.50;32.93;93531.56;5044797;28;20094;-69
2022/04/13 06:03:23;;;;;;;402.83;372.58;;;;;;;18.49;32.87;93521.94;5038934;28;20052;-69
2022/04/13 06:05:50;;;;;;;388.15;357.95;;;;;;;18.49;32.77;93530.81;5036619;28;20210;-69
2022/04/13 06:08:16;;;;;;;391.98;361.50;;;;;;;18.48;32.79;93525.88;5037210;28;20045;-69
2022/04/13 06:10:41;;;;;;;408.05;376.88;;;;;;;18.49;32.93;93530.06;5041656;28;20545;-70
2022/04/13 06:13:07;;;;;;;380.98;351.50;;;;;;;18.49;33.06;93532.78;5040161;28;20139;-70
2022/04/13 06:15:32;;;;;;;399.00;367.10;;;;;;;18.48;32.91;93537.44;5036693;28;20042;-70
2022/04/13 06:17:58;;;;;;;399.60;367.75;;;;;;;18.48;32.86;93531.28;5042061;28;20184;-69
2022/04/13 06:20:24;;;;;;;393.67;363.38;;;;;;;18.48;32.81;93531.28;5030379;28;20049;-70
2022/04/13 06:22:50;;;;;;;401.65;370.20;;;;;;;18.50;32.95;93534.28;5028987;28;20154;-72
2022/04/13 06:25:15;;;;;;;403.25;371.77;;;;;;;18.51;32.65;93538.47;5031811;28;20400;-71
2022/04/13 06:27:41;;;;;;;392.25;361.80;;;;;;;18.50;32.88;93535.00;5033896;28;20036;-72
2022/04/13 06:30:08;;;;;;;389.38;358.95;;;;;;;18.53;32.93;93536.03;5038118;28;20047;-72
2022/04/13 06:32:39;;;;;;;392.08;361.17;;;;;;;18.51;32.85;93536.50;5016943;28;20049;-72
2022/04/13 06:35:07;;;;;;;390.30;359.73;;;;;;;18.51;32.94;93536.50;5027924;28;20050;-72
2022/04/13 06:37:34;;;;;;;393.02;362.17;;;;;;;18.54;32.92;93535.56;5043439;28;20437;-72
2022/04/13 06:39:59;;;;;;;383.90;353.58;;;;;;;18.52;33.04;93542.66;5043305;28;20040;-71
2022/04/13 06:42:25;;;;;;;393.60;362.70;;;;;;;18.55;33.03;93534.38;5033915;28;20049;-68
2022/04/13 06:44:54;;;;;;;395.80;364.65;;;;;;;18.55;32.81;93537.06;5028158;28;20042;-68
2022/04/13 06:47:20;;;;;;;413.15;380.10;;;;;;;18.55;33.10;93542.47;5035491;28;20692;-69
2022/04/13 06:49:47;;;;;;;399.35;367.58;;;;;;;18.53;33.04;93549.59;5029337;28;20071;-69
2022/04/13 06:52:13;;;;;;;388.63;357.45;;;;;;;18.54;32.98;93542.94;5026646;28;20616;-69
2022/04/13 06:54:39;;;;;;;414.17;380.95;;;;;;;18.49;32.93;93535.47;5023732;28;20093;-70
2022/04/13 06:57:04;;;;;;;406.02;373.85;;;;;;;18.51;32.85;93533.81;5031087;28;20171;-69
2022/04/13 06:59:35;;;;;;;410.33;378.67;;;;;;;18.52;32.88;93540.72;5025637;28;20045;-68
2022/04/13 07:02:01;;;;;;;418.85;385.27;;;;;;;18.54;33.00;93535.56;5018250;28;20047;-68
2022/04/13 07:04:27;;;;;;;386.48;356.35;;;;;;;18.57;32.92;93533.91;5029473;28;20049;-68
2022/04/13 07:06:53;;;;;;;396.20;364.73;;;;;;;18.57;33.02;93536.59;5039946;28;20120;-68
2022/04/13 07:09:18;;;;;;;399.80;368.10;;;;;;;18.58;32.84;93546.97;5029007;28;20051;-67
2022/04/13 07:11:47;;;;;;;397.70;366.55;;;;;;;18.60;32.85;93539.16;5042808;28;20116;-67
2022/04/13 07:14:13;;;;;;;389.17;358.13;;;;;;;18.59;32.82;93539.59;5039310;28;20163;-66
2022/04/13 07:16:38;;;;;;;390.65;360.00;;;;;;;18.58;32.90;93538.09;5020772;28;20463;-66
2022/04/13 07:19:07;;;;;;;393.77;362.85;;;;;;;18.58;32.86;93540.81;5041334;28;20087;-66
2022/04/13 07:21:32;;;;;;;401.13;368.85;;;;;;;18.58;32.98;93544.25;5038082;28;20045;-67
2022/04/13 07:23:58;;;;;;;385.30;354.85;;;;;;;18.55;32.94;93547.16;5026475;28;20566;-67
2022/04/13 07:26:23;;;;;;;406.35;373.48;;;;;;;18.56;32.99;93541.28;5031933;28;20099;-67
2022/04/13 07:28:53;;;;;;;408.08;375.52;;;;;;;18.57;32.86;93550.88;5040244;28;20543;-68
2022/04/13 07:31:19;;;;;;;415.10;382.73;;;;;;;18.59;32.78;93550.41;5032225;28;20048;-67
2022/04/13 07:33:44;;;;;;;416.63;384.48;;;;;;;18.54;33.13;93546.41;5027099;28;20045;-67
2022/04/13 07:36:13;;;;;;;414.70;381.38;;;;;;;18.54;32.90;93549.13;5039425;28;20702;-68
2022/04/13 07:38:39;;;;;;;398.98;367.50;;;;;;;18.53;33.04;93553.03;5038009;28;20048;-67
2022/04/13 07:41:05;;;;;;;397.70;366.60;;;;;;;18.54;33.10;93556.50;5032549;28;20512;-68
2022/04/13 07:43:51;;;;;;;391.63;360.23;;;;;;;18.55;33.12;93541.75;5040242;28;20098;-67
2022/04/13 07:46:16;;;;;;;419.10;385.50;;;;;;;18.55;32.80;93558.72;5022968;28;20069;-67
2022/04/13 07:48:42;;;;;;;401.98;370.90;;;;;;;18.56;33.11;93557.53;5023819;28;20688;-67
2022/04/13 07:51:13;;;;;;;408.85;375.92;;;;;;;18.56;33.09;93551.34;5026249;28;20441;-67
2022/04/13 07:53:39;;;;;;;425.92;393.33;;;;;;;18.55;32.78;93549.88;5037647;28;20389;-67
2022/04/13 07:56:04;;;;;;;455.17;421.60;;;;;;;18.56;32.92;93554.81;5026612;28;20482;-68
2022/04/13 07:58:33;;;;;;;402.67;370.67;;;;;;;18.57;32.78;93560.97;5040814;28;20403;-68
2022/04/13 08:00:58;;;;;;;410.48;377.95;;;;;;;18.58;32.92;93568.63;5027260;28;20119;-67
2022/04/13 08:03:24;;;;;;;404.67;371.73;;;;;;;18.57;32.86;93569.84;5037568;28;20072;-68
2022/04/13 08:05:53;;;;;;;404.10;373.45;;;;;;;18.56;32.99;93562.94;5016116;28;20584;-67
2022/04/13 08:08:18;;;;;;;396.80;365.48;;;;;;;18.58;32.77;93567.88;5022791;28;20397;-68
2022/04/13 08:10:45;;;;;;;411.52;380.10;;;;;;;18.57;33.04;93563.69;5030995;28;20185;-68
2022/04/13 08:13:10;;;;;;;399.23;368.27;;;;;;;18.56;32.82;93562.19;5042085;28;20040;-68
2022/04/13 08:15:36;;;;;;;399.23;368.50;;;;;;;18.58;33.01;93562.47;5040585;28;20036;-68
2022/04/13 08:18:01;;;;;;;395.55;364.75;;;;;;;18.57;32.89;93569.84;5030360;28;20560;-68
2022/04/13 08:20:27;;;;;;;407.45;375.63;;;;;;;18.55;32.81;93566.09;5013936;28;20431;-68
2022/04/13 08:22:52;;;;;;;388.00;357.17;;;;;;;18.55;32.96;93561.44;5031237;28;20037;-70
2022/04/13 08:25:18;;;;;;;407.17;375.42;;;;;;;18.55;32.98;93566.84;5015070;28;20250;-68
2022/04/13 08:27:44;;;;;;;420.38;387.38;;;;;;;18.54;33.12;93570.78;5032475;28;20046;-68
2022/04/13 08:30:10;;;;;;;429.50;396.23;;;;;;;18.55;32.78;93571.53;5026810;28;20406;-66
2022/04/13 08:32:36;;;;;;;420.60;387.83;;;;;;;18.53;32.88;93572.00;5032910;28;20041;-68
2022/04/13 08:35:05;;;;;;;429.83;396.90;;;;;;;18.54;33.06;93573.50;5027540;28;20156;-68
2022/04/13 08:37:32;;;;;;;383.38;352.65;;;;;;;18.54;32.99;93575.44;5029362;28;20037;-68
2022/04/13 08:39:59;;;;;;;413.40;381.05;;;;;;;18.57;33.20;93574.50;5038284;28;20128;-68
2022/04/13 08:42:52;;;;;;;386.08;355.65;;;;;;;18.55;33.19;93576.94;5036171;28;20136;-68
2022/04/13 08:45:31;;;;;;;367.23;338.42;;;;;;;18.54;33.21;93573.50;5029110;28;20050;-66
2022/04/13 08:47:56;;;;;;;378.70;348.35;;;;;;;18.56;33.10;93573.03;5022639;28;20633;-67
2022/04/13 08:50:27;;;;;;;389.27;358.30;;;;;;;18.54;33.19;93576.19;5038790;28;20041;-67
2022/04/13 08:52:59;;;;;;;386.48;355.15;;;;;;;18.55;33.02;93576.94;5037156;28;20045;-67
2022/04/13 08:55:28;;;;;;;395.77;364.35;;;;;;;18.55;33.23;93583.09;5029380;28;21370;-67
2022/04/13 08:58:13;;;;;;;397.77;366.33;;;;;;;18.54;33.21;93578.16;5038592;28;20041;-67
2022/04/13 09:00:48;;;;;;;386.48;356.25;;;;;;;18.54;33.17;93572.75;5031788;28;20040;-67
2022/04/13 09:03:32;;;;;;;406.25;374.17;;;;;;;18.56;33.33;93573.78;5032083;28;20048;-67
2022/04/13 09:05:58;;;;;;;399.88;366.80;;;;;;;18.55;33.25;93582.34;5038639;28;20489;-66
2022/04/13 09:08:50;;;;;;;393.10;362.13;;;;;;;18.56;33.02;93583.84;5031460;28;20045;-67
2022/04/13 09:11:16;;;;;;;382.83;352.23;;;;;;;18.54;33.30;93575.44;5031622;28;20041;-67
2022/04/13 09:13:44;;;;;;;403.92;371.90;;;;;;;18.55;33.28;93576.94;5023887;28;20060;-69
2022/04/13 09:16:11;;;;;;;426.75;393.15;;;;;;;18.58;33.31;93576.00;5041269;28;20116;-67
2022/04/13 09:18:36;;;;;;;441.88;408.75;;;;;;;18.61;33.50;93575.84;5038678;28;20057;-68
2022/04/13 09:21:02;;;;;;;394.15;363.23;;;;;;;18.59;33.42;93572.09;5029075;28;20171;-66
2022/04/13 09:23:29;;;;;;;397.60;366.20;;;;;;;18.58;33.49;93573.31;5024053;28;20512;-69
2022/04/13 09:25:56;;;;;;;403.65;372.35;;;;;;;18.55;33.67;93571.53;5038377;28;20051;-67
2022/04/13 09:28:21;;;;;;;406.83;375.67;;;;;;;18.57;33.44;93569.09;5022079;28;20047;-67
2022/04/13 09:30:47;;;;;;;409.77;378.00;;;;;;;18.57;33.46;93572.56;5034014;28;20670;-67
2022/04/13 09:33:13;;;;;;;404.35;372.05;;;;;;;18.62;33.52;93571.19;5034530;28;20063;-67
2022/04/13 09:35:46;;;;;;;399.75;368.92;;;;;;;18.63;33.48;93572.69;5020690;28;20045;-67
2022/04/13 09:38:11;;;;;;;413.25;382.05;;;;;;;18.63;33.54;93575.38;5038048;28;20098;-66
2022/04/13 09:40:38;;;;;;;455.55;420.95;;;;;;;18.60;33.40;93576.28;5042895;28;20136;-67
2022/04/13 09:43:18;;;;;;;395.65;365.27;;;;;;;18.58;33.68;93574.03;5038620;28;20033;-66
2022/04/13 09:45:45;;;;;;;418.65;386.65;;;;;;;18.55;33.56;93571.53;5043034;28;20490;-66
2022/04/13 09:48:13;;;;;;;408.38;377.10;;;;;;;18.49;33.76;93576.84;5034544;28;20072;-66
2022/04/13 09:50:40;;;;;;;426.77;393.48;;;;;;;18.46;33.96;93571.63;5028114;28;20078;-69
2022/04/13 09:53:07;;;;;;;416.33;384.50;;;;;;;18.50;33.84;93574.88;5027139;28;20037;-68
2022/04/13 09:55:54;;;;;;;411.70;380.52;;;;;;;18.53;33.84;93563.13;5036369;28;20052;-68
2022/04/13 09:58:32;;;;;;;415.60;382.08;;;;;;;18.54;33.87;93575.44;5022408;28;20175;-69
2022/04/13 10:01:02;;;;;;;408.15;376.38;;;;;;;18.54;33.73;93573.50;5016756;28;20534;-68
2022/04/13 10:03:28;;;;;;;396.38;365.08;;;;;;;18.52;33.97;93575.91;5042490;28;20044;-67
2022/04/13 10:05:56;;;;;;;418.63;385.55;;;;;;;18.49;33.92;93573.41;5035217;28;20033;-67
2022/04/13 10:08:24;;;;;;;421.58;389.48;;;;;;;18.48;34.03;93580.03;5041156;28;20048;-66
2022/04/13 10:10:52;;;;;;;407.55;374.98;;;;;;;18.54;33.79;93575.44;5028570;28;20116;-67
2022/04/13 10:13:31;;;;;;;440.38;403.45;;;;;;;18.55;33.78;93566.84;5007629;28;20060;-67
2022/04/13 10:15:58;;;;;;;407.20;375.23;;;;;;;18.55;33.70;93572.28;5031884;28;20049;-67
2022/04/13 10:18:24;;;;;;;400.83;369.30;;;;;;;18.51;33.90;93568.25;5029193;28;20738;-67
2022/04/13 10:20:50;;;;;;;422.38;389.27;;;;;;;18.50;33.81;93566.75;5033350;28;20049;-67
2022/04/13 10:23:16;;;;;;;397.27;365.67;;;;;;;18.52;33.74;93567.03;5041260;28;20346;-67
2022/04/13 10:25:44;;;;;;;434.80;400.27;;;;;;;18.49;33.84;93573.41;5034761;28;20044;-71
2022/04/13 10:28:21;;;;;;;410.70;378.83;;;;;;;18.48;33.97;93569.94;5035854;28;20098;-73
2022/04/13 10:30:48;;;;;;;471.20;436.17;;;;;;;18.52;34.09;93569.75;5007826;28;20033;-74
2022/04/13 10:33:14;;;;;;;417.38;384.92;;;;;;;18.50;34.20;93569.47;5026108;28;20072;-72
2022/04/13 10:35:45;;;;;;;399.38;367.88;;;;;;;18.53;33.96;93563.88;5030888;28;20117;-71
2022/04/13 10:38:12;;;;;;;433.35;401.02;;;;;;;18.51;34.34;93557.44;5016530;28;20045;-72
2022/04/13 10:40:41;;;;;;;415.08;384.25;;;;;;;18.54;34.12;93562.66;5030697;28;20576;-71
2022/04/13 10:43:11;;;;;;;415.48;383.73;;;;;;;18.62;34.02;93555.69;5040323;28;20044;-71
2022/04/13 10:45:39;;;;;;;403.65;371.73;;;;;;;18.65;33.88;93559.41;5023748;28;20078;-71
2022/04/13 10:48:07;;;;;;;415.75;383.42;;;;;;;18.63;34.03;93551.00;5019164;28;20045;-72
2022/04/13 10:50:57;;;;;;;417.38;385.48;;;;;;;18.65;33.98;93546.63;5034398;28;20095;-71
2022/04/13 10:53:58;;;;;;;400.23;368.98;;;;;;;18.62;33.88;93546.81;5030149;28;20041;-73
2022/04/13 10:56:27;;;;;;;420.80;387.50;;;;;;;18.58;34.24;93549.69;5025509;28;20075;-72
2022/04/13 10:59:18;;;;;;;410.98;379.23;;;;;;;18.58;34.38;93554.34;5018755;28;20525;-72
2022/04/13 11:01:58;;;;;;;412.52;380.08;;;;;;;18.59;34.06;93547.72;5036159;28;20087;-73
2022/04/13 11:04:27;;;;;;;417.02;385.48;;;;;;;18.60;34.04;93555.41;5015676;28;20491;-73